This is the latest recevied weather packets stored in our database for station/object N1OF. If no packets are shown the sender has not sent any weather packets the latest 10 day(s).
| Time | Temp. | Humidity | Pressure | Rain* | Wind** | Luminosity | Snow |
|---|---|---|---|---|---|---|---|
| 1777852998 | 11.11° C | 65% | 1012.8 hPa | 0 mm | - | - | - |
| 1777852696 | 11.11° C | 64% | 1012.7 hPa | 0 mm | - | - | - |
| 1777852393 | 11.11° C | 63% | 1012.8 hPa | 0 mm | - | - | - |
| 1777852090 | 11.11° C | 63% | 1013 hPa | 0 mm | - | - | - |
| 1777851788 | 11.11° C | 63% | 1012.9 hPa | 0 mm | - | - | - |
| 1777851486 | 11.67° C | 63% | 1013 hPa | 0 mm | - | - | - |
| 1777851181 | 11.67° C | 62% | 1013.3 hPa | 0 mm | - | - | - |
| 1777850878 | 11.67° C | 61% | 1013.1 hPa | 0 mm | - | - | - |
| 1777850575 | 11.67° C | 60% | 1013.4 hPa | 0 mm | - | - | - |
| 1777850273 | 11.67° C | 60% | 1013.2 hPa | 0 mm | - | - | - |
| 1777849970 | 11.67° C | 61% | 1013 hPa | 0 mm | - | - | - |
| 1777849666 | 11.67° C | 60% | 1013.2 hPa | 0 mm | - | - | - |
| 1777849364 | 12.22° C | 59% | 1013.3 hPa | 0 mm | - | - | - |
| 1777849061 | 12.22° C | 60% | 1013.3 hPa | 0 mm | - | - | - |
| 1777848761 | 12.22° C | 60% | 1013.4 hPa | 0 mm | - | - | - |
| 1777848458 | 12.22° C | 58% | 1013.4 hPa | 0 mm | - | - | - |
| 1777848156 | 12.78° C | 59% | 1013.2 hPa | 0 mm | - | - | - |
| 1777847853 | 13.33° C | 57% | 1013.4 hPa | 0 mm | - | - | - |
| 1777847551 | 13.33° C | 56% | 1013.5 hPa | 0 mm | - | - | - |
| 1777847247 | 13.33° C | 56% | 1013.4 hPa | 0 mm | - | - | - |
| 1777846945 | 13.33° C | 58% | 1013.4 hPa | 0 mm | - | - | - |
| 1777846643 | 13.89° C | 57% | 1013.3 hPa | 0 mm | - | - | - |
| 1777846341 | 14.44° C | 54% | 1013 hPa | 0 mm | - | - | - |
| 1777846037 | 15.56° C | 37% | 1013.1 hPa | 0 mm | - | - | - |
| 1777845734 | 15.56° C | 38% | 1012.8 hPa | 0 mm | - | - | - |
* Rain latest hour (hover to see other rain measurements)
** Current wind speed in m/s (hover to see current wind gust speed)